Time;durP1;ratioP1;P1;durP2;ratioP2;P2;SDS_P1;SDS_P2;PMS_P1;PMS_P2;Temp;Humidity;BMP_temperature;BMP_pressure;BME280_temperature;BME280_humidity;BME280_pressure;Samples;Min_cycle;Max_cycle;Signal;HPM_P1;HPM_P2
2021/12/02 00:01:04;;;;;;;7.07;1.08;;;4.00;99.90;;;;;;6310205;22;20462;-80
2021/12/02 00:03:30;;;;;;;4.05;0.80;;;4.00;99.90;;;;;;6309683;22;20093;-80
2021/12/02 00:05:55;;;;;;;5.82;1.20;;;3.90;99.90;;;;;;6309784;22;20030;-80
2021/12/02 00:08:21;;;;;;;6.10;1.77;;;4.00;99.90;;;;;;6309184;22;20065;-80
2021/12/02 00:10:47;;;;;;;11.45;2.10;;;4.00;99.90;;;;;;6309851;22;20011;-81
2021/12/02 00:13:13;;;;;;;7.32;2.20;;;4.00;99.90;;;;;;6309921;22;20400;-80
2021/12/02 00:23:28;;;;;;;5.90;1.63;;;4.10;99.90;;;;;;6310410;22;20023;-79
2021/12/02 00:25:56;;;;;;;4.70;1.05;;;4.10;99.90;;;;;;6309249;22;20030;-80
2021/12/02 00:28:25;;;;;;;6.55;1.60;;;4.00;99.90;;;;;;6283399;22;20011;-81
2021/12/02 00:30:57;;;;;;;6.03;1.10;;;4.00;99.90;;;;;;6309791;22;20011;-81
2021/12/02 00:33:26;;;;;;;6.28;1.25;;;4.10;99.90;;;;;;6309200;22;20057;-79
2021/12/02 00:35:52;;;;;;;9.98;2.28;;;4.00;99.90;;;;;;6309445;22;20007;-79
2021/12/02 00:38:20;;;;;;;11.15;1.83;;;4.10;99.90;;;;;;6309183;22;20019;-79
2021/12/02 00:40:47;;;;;;;9.63;1.67;;;3.70;99.90;;;;;;6309408;22;20046;-79
2021/12/02 00:43:13;;;;;;;9.65;2.05;;;3.60;99.90;;;;;;6308968;22;20016;-78
2021/12/02 00:45:40;;;;;;;10.35;1.60;;;3.50;99.90;;;;;;6335153;22;20033;-78
2021/12/02 00:48:10;;;;;;;9.13;0.95;;;3.30;99.90;;;;;;6309143;22;20018;-79
2021/12/02 00:50:37;;;;;;;4.55;0.73;;;3.20;99.90;;;;;;6309512;22;20029;-82
2021/12/02 00:53:05;;;;;;;6.43;1.25;;;3.20;99.90;;;;;;6283176;22;20025;-78
2021/12/02 00:55:32;;;;;;;16.35;1.38;;;3.10;99.90;;;;;;6308804;22;20095;-80
2021/12/02 00:57:58;;;;;;;7.75;1.55;;;3.10;99.90;;;;;;6310299;22;20419;-81
2021/12/02 01:00:24;;;;;;;9.30;1.30;;;3.20;99.90;;;;;;6309016;22;20015;-78
2021/12/02 01:02:50;;;;;;;8.45;1.40;;;3.30;99.90;;;;;;6283209;22;20022;-79
2021/12/02 01:05:15;;;;;;;5.68;0.88;;;3.20;99.90;;;;;;6309259;22;20077;-80
2021/12/02 01:07:42;;;;;;;16.58;2.20;;;3.20;99.90;;;;;;6310400;22;20030;-80
2021/12/02 01:10:08;;;;;;;9.57;1.20;;;3.20;99.90;;;;;;6283008;22;20098;-80
2021/12/02 01:12:37;;;;;;;8.88;1.42;;;3.20;99.90;;;;;;6309183;22;20050;-80
2021/12/02 01:15:06;;;;;;;8.65;1.83;;;3.20;99.90;;;;;;6283398;22;20047;-81
2021/12/02 01:17:32;;;;;;;9.15;1.80;;;3.30;99.90;;;;;;6308873;22;20450;-80
2021/12/02 01:19:58;;;;;;;10.70;1.92;;;3.30;99.90;;;;;;6309322;22;20030;-81
2021/12/02 01:22:26;;;;;;;7.20;1.48;;;3.30;99.90;;;;;;6309045;22;20022;-79
2021/12/02 01:24:52;;;;;;;11.57;1.83;;;3.40;99.90;;;;;;6309101;22;20015;-81
2021/12/02 01:27:21;;;;;;;5.93;1.17;;;3.40;99.90;;;;;;6308737;22;20019;-78
2021/12/02 01:29:48;;;;;;;4.55;1.10;;;3.50;99.90;;;;;;6308959;22;20065;-81
2021/12/02 01:32:15;;;;;;;3.08;0.70;;;3.50;99.90;;;;;;6308860;22;20097;-81
2021/12/02 01:34:45;;;;;;;2.65;0.40;;;3.40;99.90;;;;;;6283256;22;20049;-81
2021/12/02 01:37:11;;;;;;;6.25;0.80;;;3.30;99.90;;;;;;6308815;22;20019;-79
2021/12/02 01:39:37;;;;;;;4.70;0.68;;;3.20;99.90;;;;;;6308989;22;20015;-81
2021/12/02 01:42:06;;;;;;;4.57;0.68;;;3.10;99.90;;;;;;6308532;22;20019;-80
2021/12/02 01:44:35;;;;;;;4.20;0.70;;;3.20;99.90;;;;;;6309010;22;20011;-81
2021/12/02 01:47:01;;;;;;;3.65;0.80;;;3.00;99.90;;;;;;6308224;22;20013;-82
2021/12/02 01:49:31;;;;;;;2.75;0.40;;;3.10;99.90;;;;;;6308942;22;20385;-81
2021/12/02 01:51:56;;;;;;;6.07;0.65;;;3.00;99.90;;;;;;6282451;22;20434;-79
2021/12/02 01:54:24;;;;;;;4.07;0.93;;;2.90;99.90;;;;;;6308730;22;20019;-81
2021/12/02 01:56:55;;;;;;;4.70;0.50;;;3.00;99.90;;;;;;6308688;22;20015;-79
2021/12/02 01:59:23;;;;;;;4.70;0.60;;;2.80;99.90;;;;;;6309921;22;20111;-80
2021/12/02 02:01:55;;;;;;;6.30;1.13;;;2.80;99.90;;;;;;6283130;22;20015;-80
2021/12/02 02:04:23;;;;;;;2.83;0.70;;;2.80;99.90;;;;;;6309525;22;20042;-79
2021/12/02 02:06:51;;;;;;;4.07;0.60;;;2.70;99.90;;;;;;6308218;22;20011;-79
2021/12/02 02:09:17;;;;;;;8.73;0.63;;;2.70;99.90;;;;;;6308415;22;20019;-81
2021/12/02 02:11:42;;;;;;;5.53;0.50;;;2.60;99.90;;;;;;6308216;22;20011;-81
2021/12/02 02:14:09;;;;;;;6.72;0.60;;;2.60;99.90;;;;;;6282926;22;20050;-79
2021/12/02 02:16:36;;;;;;;3.70;0.38;;;2.70;99.90;;;;;;6308395;22;20427;-81
2021/12/02 02:19:04;;;;;;;1.75;0.50;;;2.50;99.90;;;;;;6308602;22;20419;-79
2021/12/02 02:21:31;;;;;;;2.50;0.35;;;2.50;99.90;;;;;;6308365;22;20034;-83
2021/12/02 02:23:58;;;;;;;4.32;0.70;;;2.40;99.90;;;;;;6282231;22;20015;-82
2021/12/02 02:26:33;;;;;;;2.55;0.95;;;2.50;99.90;;;;;;6282418;22;20098;-80
2021/12/02 02:28:59;;;;;;;3.22;0.68;;;2.50;99.90;;;;;;6309585;22;20015;-79
2021/12/02 02:31:27;;;;;;;1.05;0.43;;;2.50;99.90;;;;;;6307845;22;20292;-81
2021/12/02 02:33:53;;;;;;;2.97;0.45;;;2.50;99.90;;;;;;6308367;22;20011;-81
2021/12/02 02:36:22;;;;;;;5.13;0.60;;;2.50;99.90;;;;;;6308193;22;20019;-79
2021/12/02 02:38:55;;;;;;;4.35;0.90;;;2.50;99.90;;;;;;6282582;22;20419;-79
2021/12/02 02:41:24;;;;;;;7.45;2.08;;;2.50;99.90;;;;;;6308529;22;20022;-78
2021/12/02 02:43:52;;;;;;;5.32;0.52;;;2.60;99.90;;;;;;6282699;22;20015;-78
2021/12/02 02:46:26;;;;;;;7.03;0.60;;;2.70;99.90;;;;;;6307885;22;20019;-78
2021/12/02 02:48:52;;;;;;;5.18;0.80;;;2.60;99.90;;;;;;6308424;22;20015;-80
2021/12/02 02:51:18;;;;;;;5.97;1.30;;;2.60;99.90;;;;;;6309090;22;20023;-78
2021/12/02 02:53:47;;;;;;;6.47;1.25;;;2.60;99.90;;;;;;6309096;22;20023;-79
2021/12/02 02:56:18;;;;;;;5.63;0.88;;;2.60;99.90;;;;;;6309516;22;20015;-80
2021/12/02 02:59:05;;;;;;;8.70;1.02;;;2.70;99.90;;;;;;6308511;22;20319;-80
2021/12/02 03:01:49;;;;;;;5.70;0.98;;;2.60;99.90;;;;;;6308190;22;20093;-80
2021/12/02 03:04:29;;;;;;;3.97;0.73;;;2.50;99.90;;;;;;6307993;22;20094;-79
2021/12/02 03:07:01;;;;;;;8.65;1.27;;;2.60;99.90;;;;;;6282621;22;20315;-78
2021/12/02 03:09:45;;;;;;;7.07;1.17;;;2.50;99.90;;;;;;6307970;22;20058;-79
2021/12/02 03:17:30;;;;;;;9.23;1.17;;;2.60;99.90;;;;;;6309300;22;20026;-78
2021/12/02 03:19:55;;;;;;;3.13;0.77;;;2.60;99.90;;;;;;6309567;22;20007;-80
2021/12/02 03:22:21;;;;;;;7.93;1.30;;;2.50;99.90;;;;;;6309854;22;20104;-80
2021/12/02 03:24:47;;;;;;;7.05;1.50;;;2.50;99.90;;;;;;6310377;22;20015;-78
2021/12/02 03:27:13;;;;;;;8.15;2.53;;;2.50;99.90;;;;;;6310564;22;20019;-80
2021/12/02 03:29:40;;;;;;;10.45;0.90;;;2.50;99.90;;;;;;6309745;22;20015;-77
2021/12/02 03:32:07;;;;;;;5.47;1.15;;;2.50;99.90;;;;;;6309774;22;20011;-79
2021/12/02 03:34:33;;;;;;;3.92;0.80;;;2.60;99.90;;;;;;6284212;22;20015;-80
2021/12/02 03:36:59;;;;;;;11.65;2.95;;;2.50;99.90;;;;;;6308853;22;20090;-80
2021/12/02 03:39:28;;;;;;;7.55;1.83;;;2.60;99.90;;;;;;6310458;22;20090;-80
2021/12/02 03:41:55;;;;;;;11.07;2.17;;;2.70;99.90;;;;;;6309900;22;20030;-79
2021/12/02 03:44:22;;;;;;;5.88;1.00;;;2.70;99.90;;;;;;6284413;22;20015;-79
2021/12/02 03:46:48;;;;;;;5.53;1.10;;;2.90;99.90;;;;;;6309956;22;20116;-81
2021/12/02 03:49:14;;;;;;;6.88;0.70;;;3.00;99.90;;;;;;6309655;22;20018;-79
2021/12/02 03:51:40;;;;;;;2.53;0.30;;;2.90;99.90;;;;;;6310108;22;20307;-83
2021/12/02 03:54:05;;;;;;;5.35;0.85;;;3.00;99.90;;;;;;6309835;22;20038;-81
2021/12/02 03:56:31;;;;;;;2.78;0.40;;;2.90;99.90;;;;;;6311047;22;20438;-79
2021/12/02 03:58:56;;;;;;;1.48;1.00;;;3.00;99.90;;;;;;6302698;22;20307;-81
2021/12/02 04:01:22;;;;;;;3.95;0.57;;;2.90;99.90;;;;;;6309914;22;20008;-79
2021/12/02 04:03:48;;;;;;;4.13;0.82;;;2.90;99.90;;;;;;6309461;22;20012;-80
2021/12/02 04:06:15;;;;;;;5.28;0.52;;;2.90;99.90;;;;;;6283646;22;20019;-79
2021/12/02 04:08:46;;;;;;;6.40;1.33;;;2.90;99.90;;;;;;6284372;22;20018;-79
2021/12/02 04:11:30;;;;;;;2.67;0.50;;;3.00;99.90;;;;;;6309814;22;20015;-78
2021/12/02 04:16:22;;;;;;;4.53;1.33;;;3.00;99.90;;;;;;6309577;22;20094;-81
2021/12/02 04:18:48;;;;;;;3.45;0.50;;;3.00;99.90;;;;;;6309740;22;20019;-80
2021/12/02 04:21:15;;;;;;;4.18;1.10;;;3.00;99.90;;;;;;6309373;22;20019;-80
2021/12/02 04:23:41;;;;;;;0.95;0.30;;;3.10;99.90;;;;;;6309630;22;20012;-80
2021/12/02 04:26:06;;;;;;;4.38;0.30;;;3.00;99.90;;;;;;6309564;22;20007;-78
2021/12/02 04:28:32;;;;;;;0.73;0.20;;;2.90;99.90;;;;;;6309820;22;20411;-80
2021/12/02 04:30:58;;;;;;;3.28;0.40;;;2.90;99.90;;;;;;6283385;22;20081;-81
2021/12/02 04:33:24;;;;;;;4.72;0.40;;;2.90;99.90;;;;;;6283920;22;20023;-79
2021/12/02 04:35:51;;;;;;;6.82;0.47;;;2.90;99.90;;;;;;6309436;22;20156;-80
2021/12/02 04:38:17;;;;;;;4.13;0.30;;;2.90;99.90;;;;;;6309200;22;20042;-80
2021/12/02 04:40:42;;;;;;;3.92;0.55;;;2.90;99.90;;;;;;6309489;22;20407;-80
2021/12/02 04:43:08;;;;;;;4.10;0.60;;;2.80;99.90;;;;;;6308871;22;20015;-79
2021/12/02 04:45:34;;;;;;;3.55;0.63;;;2.90;99.90;;;;;;6283338;22;20093;-81
2021/12/02 04:48:00;;;;;;;5.85;0.95;;;2.90;99.90;;;;;;6309472;22;20335;-79
2021/12/02 04:50:27;;;;;;;3.63;0.60;;;2.90;99.90;;;;;;6308960;22;20522;-80
2021/12/02 04:52:53;;;;;;;6.25;0.90;;;2.90;99.90;;;;;;6283547;22;20011;-80
2021/12/02 04:55:20;;;;;;;2.10;0.40;;;2.90;99.90;;;;;;6309719;22;20547;-81
2021/12/02 04:57:46;;;;;;;4.28;1.15;;;2.80;99.90;;;;;;6309460;22;20086;-79
2021/12/02 05:00:14;;;;;;;4.90;0.52;;;2.80;99.90;;;;;;6308626;22;20008;-80
2021/12/02 05:02:40;;;;;;;3.90;0.57;;;2.80;99.90;;;;;;6309032;22;20015;-79
2021/12/02 05:05:07;;;;;;;2.42;0.70;;;2.80;99.90;;;;;;6283492;22;20019;-80
2021/12/02 05:07:33;;;;;;;2.92;0.50;;;2.80;99.90;;;;;;6283796;22;20069;-79
2021/12/02 05:09:58;;;;;;;5.07;0.75;;;2.90;99.90;;;;;;6283528;22;20403;-78
2021/12/02 05:12:24;;;;;;;2.75;0.40;;;2.90;99.90;;;;;;6309125;22;20015;-81
2021/12/02 05:14:50;;;;;;;1.98;0.70;;;2.90;99.90;;;;;;6308764;22;20069;-80
2021/12/02 05:17:16;;;;;;;8.38;1.30;;;2.90;99.90;;;;;;6282831;22;20015;-80
2021/12/02 05:19:41;;;;;;;4.05;0.90;;;2.80;99.90;;;;;;6309323;22;20088;-81
2021/12/02 05:22:08;;;;;;;7.40;1.50;;;2.80;99.90;;;;;;6283313;22;20422;-81
2021/12/02 05:24:34;;;;;;;5.20;0.80;;;2.80;99.90;;;;;;6309494;22;20140;-79
2021/12/02 05:26:59;;;;;;;4.57;0.60;;;2.70;99.90;;;;;;6309244;22;20058;-80
2021/12/02 05:29:25;;;;;;;4.18;0.93;;;2.70;99.90;;;;;;6282949;22;20015;-82
2021/12/02 05:31:51;;;;;;;3.22;0.47;;;2.60;99.90;;;;;;6309005;22;20354;-80
2021/12/02 05:34:17;;;;;;;5.65;0.70;;;2.70;99.90;;;;;;6308968;22;20026;-80
2021/12/02 05:36:42;;;;;;;4.00;0.73;;;2.60;99.90;;;;;;6308918;22;20374;-79
2021/12/02 05:39:08;;;;;;;4.97;0.60;;;2.70;99.90;;;;;;6283118;22;20285;-81
2021/12/02 05:41:33;;;;;;;6.80;0.98;;;2.80;99.90;;;;;;6257148;22;20026;-79
2021/12/02 05:44:00;;;;;;;4.22;0.70;;;2.90;99.90;;;;;;6282757;22;20069;-82
2021/12/02 05:46:27;;;;;;;3.50;0.77;;;2.80;99.90;;;;;;6282999;22;20395;-81
2021/12/02 05:48:52;;;;;;;1.88;0.40;;;2.90;99.90;;;;;;6257313;22;20015;-81
2021/12/02 05:51:18;;;;;;;2.42;0.32;;;2.90;99.90;;;;;;6282607;22;20022;-80
2021/12/02 05:53:43;;;;;;;4.07;0.50;;;3.00;99.90;;;;;;6282782;22;20026;-81
2021/12/02 05:56:09;;;;;;;6.68;0.98;;;2.90;99.90;;;;;;6256774;22;20076;-81
2021/12/02 05:58:35;;;;;;;1.92;0.55;;;2.80;99.90;;;;;;6282528;22;20434;-78
2021/12/02 06:01:00;;;;;;;2.50;0.50;;;2.90;99.90;;;;;;6256980;22;20026;-79
2021/12/02 06:03:26;;;;;;;2.75;0.77;;;2.90;99.90;;;;;;6256964;22;20011;-81
2021/12/02 06:05:52;;;;;;;6.93;1.13;;;3.00;99.90;;;;;;6257059;22;20011;-79
2021/12/02 06:08:17;;;;;;;3.95;0.90;;;3.00;99.90;;;;;;6282701;22;20011;-81
2021/12/02 06:10:43;;;;;;;0.95;0.30;;;3.00;99.90;;;;;;6282914;22;20103;-79
2021/12/02 06:13:11;;;;;;;5.15;0.65;;;3.00;99.90;;;;;;6252088;22;20412;-81
2021/12/02 06:15:36;;;;;;;3.47;0.90;;;3.00;99.90;;;;;;6257251;22;20086;-81
2021/12/02 06:18:02;;;;;;;6.82;1.08;;;3.10;99.90;;;;;;6256971;22;20384;-78
2021/12/02 06:20:28;;;;;;;2.92;0.60;;;3.20;99.90;;;;;;6282546;22;20019;-79
2021/12/02 06:22:53;;;;;;;7.45;0.82;;;3.20;99.90;;;;;;6282598;22;20022;-77
2021/12/02 06:27:47;;;;;;;5.30;0.93;;;3.20;99.90;;;;;;6282103;22;20415;-81
2021/12/02 06:30:14;;;;;;;4.38;0.50;;;3.30;99.90;;;;;;6257099;22;20076;-79
2021/12/02 06:32:40;;;;;;;4.43;1.23;;;3.30;99.90;;;;;;6281952;22;20109;-78
2021/12/02 06:35:07;;;;;;;5.30;0.77;;;3.30;99.90;;;;;;6281642;22;20435;-78
2021/12/02 06:37:33;;;;;;;3.97;0.88;;;3.30;99.90;;;;;;6263130;22;20094;-78
2021/12/02 06:39:58;;;;;;;4.70;0.90;;;3.30;99.90;;;;;;6309451;22;20443;-80
2021/12/02 06:42:24;;;;;;;3.97;0.38;;;3.30;99.90;;;;;;6308177;22;20350;-75
2021/12/02 06:44:50;;;;;;;5.35;0.35;;;3.20;99.90;;;;;;6309736;22;20016;-75
2021/12/02 06:47:15;;;;;;;3.78;0.50;;;3.10;99.90;;;;;;6309373;22;20015;-77
2021/12/02 06:49:41;;;;;;;5.28;0.40;;;3.00;99.90;;;;;;6282999;22;20027;-79
2021/12/02 06:52:11;;;;;;;2.88;1.00;;;3.10;99.90;;;;;;6308389;22;20415;-76
2021/12/02 06:54:37;;;;;;;1.98;0.90;;;3.00;99.90;;;;;;6309284;22;20015;-77
2021/12/02 06:57:02;;;;;;;4.97;0.70;;;3.00;99.90;;;;;;6311125;22;20015;-78
2021/12/02 06:59:28;;;;;;;4.80;0.60;;;3.00;99.90;;;;;;6310005;22;20019;-77
2021/12/02 07:01:53;;;;;;;4.50;0.60;;;3.10;99.90;;;;;;6311629;22;20019;-79
2021/12/02 07:04:19;;;;;;;3.55;0.50;;;3.10;99.90;;;;;;6310277;22;20458;-76
2021/12/02 07:06:45;;;;;;;6.80;0.95;;;3.00;99.90;;;;;;6311664;22;20019;-74
2021/12/02 07:09:11;;;;;;;4.78;0.90;;;3.10;99.90;;;;;;6310166;22;20358;-75
2021/12/02 07:11:37;;;;;;;3.30;0.63;;;3.00;99.90;;;;;;6310910;22;20035;-76
2021/12/02 07:14:09;;;;;;;6.63;0.80;;;3.00;99.90;;;;;;6284648;22;20087;-75
2021/12/02 07:16:36;;;;;;;2.95;0.93;;;3.00;99.90;;;;;;6310375;22;20412;-75
2021/12/02 07:19:07;;;;;;;6.22;1.08;;;3.00;99.90;;;;;;6311336;22;20442;-74
2021/12/02 07:21:38;;;;;;;6.57;1.88;;;3.10;99.90;;;;;;6309839;22;20090;-76
2021/12/02 07:24:05;;;;;;;6.10;1.77;;;3.10;99.90;;;;;;6283040;22;20019;-75
2021/12/02 07:26:36;;;;;;;2.83;1.00;;;3.00;99.90;;;;;;6311131;22;20023;-76
2021/12/02 07:29:02;;;;;;;3.40;0.60;;;3.00;99.90;;;;;;6310097;22;20031;-75
2021/12/02 07:31:29;;;;;;;6.70;1.17;;;3.00;99.90;;;;;;6310644;22;20412;-76
2021/12/02 07:33:57;;;;;;;6.47;1.08;;;2.90;99.90;;;;;;6283690;22;20015;-76
2021/12/02 07:36:24;;;;;;;8.88;1.40;;;3.00;99.90;;;;;;6310970;22;20442;-74
2021/12/02 07:38:50;;;;;;;7.35;1.95;;;3.00;99.90;;;;;;6310081;22;20476;-75
2021/12/02 07:41:16;;;;;;;3.28;1.33;;;3.00;99.90;;;;;;6310909;22;20148;-75
2021/12/02 07:43:42;;;;;;;6.03;1.30;;;3.00;99.90;;;;;;6283987;22;20069;-76
2021/12/02 07:46:09;;;;;;;3.42;1.05;;;2.90;99.90;;;;;;6310706;22;20015;-73
2021/12/02 07:48:36;;;;;;;1.90;0.73;;;3.00;99.90;;;;;;6310822;22;20012;-76
2021/12/02 07:51:08;;;;;;;9.45;2.42;;;3.00;99.90;;;;;;6311031;22;20015;-75
2021/12/02 07:53:35;;;;;;;6.10;1.13;;;2.90;99.90;;;;;;6310797;22;20069;-75
2021/12/02 07:56:03;;;;;;;15.02;3.65;;;3.00;99.90;;;;;;6282389;22;20391;-78
2021/12/02 07:58:30;;;;;;;5.57;1.50;;;3.00;99.90;;;;;;6281851;22;20019;-77
2021/12/02 08:01:00;;;;;;;4.43;1.45;;;3.00;99.90;;;;;;6310266;22;20022;-74
2021/12/02 08:03:27;;;;;;;2.35;1.10;;;3.00;99.90;;;;;;6281083;22;20023;-75
2021/12/02 08:05:53;;;;;;;4.68;1.10;;;2.90;99.90;;;;;;6309891;22;20111;-75
2021/12/02 08:08:19;;;;;;;6.68;1.10;;;2.90;99.90;;;;;;6310429;22;20090;-74
2021/12/02 08:10:45;;;;;;;4.18;1.17;;;3.00;99.90;;;;;;6310514;22;20057;-76
2021/12/02 08:13:13;;;;;;;3.35;0.85;;;3.00;99.90;;;;;;6310672;22;20076;-75
2021/12/02 08:15:39;;;;;;;6.03;1.40;;;3.00;99.90;;;;;;6283182;22;20034;-73
2021/12/02 08:18:05;;;;;;;8.85;1.88;;;3.10;99.90;;;;;;6310360;22;20030;-73
2021/12/02 08:20:31;;;;;;;7.93;1.10;;;3.20;99.90;;;;;;6310291;22;20015;-73
2021/12/02 08:22:57;;;;;;;6.78;1.55;;;3.10;99.90;;;;;;6310452;22;20026;-74
2021/12/02 08:25:26;;;;;;;3.95;1.02;;;3.10;99.90;;;;;;6310714;22;20078;-73
2021/12/02 08:27:51;;;;;;;6.07;1.17;;;3.20;99.90;;;;;;6310548;22;20020;-73
2021/12/02 08:30:22;;;;;;;3.80;1.25;;;3.10;99.90;;;;;;6310471;22;20297;-74
2021/12/02 08:32:48;;;;;;;9.00;1.33;;;3.20;99.90;;;;;;6310514;22;20316;-74
2021/12/02 08:35:15;;;;;;;6.35;0.80;;;3.20;99.90;;;;;;6310483;22;20023;-75
2021/12/02 08:37:44;;;;;;;1.65;0.55;;;3.30;99.90;;;;;;6291402;22;20088;-75
2021/12/02 08:40:13;;;;;;;2.38;0.95;;;3.30;99.90;;;;;;6310695;22;20316;-74
2021/12/02 08:42:38;;;;;;;4.90;0.82;;;3.30;99.90;;;;;;6310466;22;20019;-75
2021/12/02 08:45:05;;;;;;;3.75;1.00;;;3.30;99.90;;;;;;6309435;22;20058;-75
2021/12/02 08:47:30;;;;;;;3.75;0.80;;;3.30;99.90;;;;;;6310066;22;20011;-74
2021/12/02 08:49:57;;;;;;;6.25;1.27;;;3.30;99.90;;;;;;6310116;22;20374;-74
2021/12/02 08:52:26;;;;;;;4.90;1.00;;;3.40;99.90;;;;;;6310473;22;20019;-73
2021/12/02 08:54:52;;;;;;;10.07;1.42;;;3.40;99.90;;;;;;6310055;22;20084;-75
2021/12/02 08:57:19;;;;;;;3.42;1.00;;;3.30;99.90;;;;;;6310407;22;20022;-75
2021/12/02 08:59:45;;;;;;;3.03;0.98;;;3.40;99.90;;;;;;6309983;22;20125;-74
2021/12/02 09:02:12;;;;;;;4.90;0.70;;;3.50;99.90;;;;;;6308088;22;20415;-73
2021/12/02 09:04:38;;;;;;;0.88;0.50;;;3.50;99.90;;;;;;6309848;22;20012;-74
2021/12/02 09:07:04;;;;;;;3.50;0.70;;;3.40;99.90;;;;;;6310002;22;20093;-74
2021/12/02 09:09:30;;;;;;;3.10;0.52;;;3.40;99.90;;;;;;6310671;22;20299;-74
2021/12/02 09:11:57;;;;;;;3.40;0.82;;;3.50;99.90;;;;;;6309953;22;20061;-75
2021/12/02 09:14:23;;;;;;;2.72;0.82;;;3.30;99.90;;;;;;6309060;22;20015;-74
2021/12/02 09:16:50;;;;;;;5.70;0.88;;;3.40;99.90;;;;;;6308747;22;20026;-77
2021/12/02 09:19:17;;;;;;;2.10;0.68;;;3.30;99.90;;;;;;6310141;22;20022;-76
2021/12/02 09:21:42;;;;;;;7.10;1.20;;;3.40;99.90;;;;;;6309929;22;20011;-75
2021/12/02 09:24:08;;;;;;;3.03;0.63;;;3.30;99.90;;;;;;6310099;22;20078;-73
2021/12/02 09:26:34;;;;;;;2.70;0.68;;;3.30;99.90;;;;;;6308262;22;20015;-75
2021/12/02 09:28:59;;;;;;;5.07;0.88;;;3.40;99.90;;;;;;6309619;22;20080;-80
2021/12/02 09:31:25;;;;;;;3.45;1.00;;;3.40;99.90;;;;;;6308142;22;20431;-76
2021/12/02 09:33:51;;;;;;;1.52;0.80;;;3.40;99.90;;;;;;6308514;22;20027;-73
2021/12/02 09:36:18;;;;;;;5.20;1.05;;;3.40;99.90;;;;;;6309885;22;20034;-77
2021/12/02 09:38:45;;;;;;;2.63;0.85;;;3.50;99.90;;;;;;6308475;22;20434;-76
2021/12/02 09:41:11;;;;;;;7.45;1.95;;;3.50;99.90;;;;;;6309527;22;20030;-71
2021/12/02 09:43:36;;;;;;;4.93;1.63;;;3.60;99.90;;;;;;6309523;22;20011;-74
2021/12/02 09:46:02;;;;;;;2.63;1.00;;;3.70;99.90;;;;;;6309200;22;20094;-75
2021/12/02 09:48:29;;;;;;;3.38;0.65;;;3.70;99.90;;;;;;6309727;22;20022;-74
2021/12/02 09:51:05;;;;;;;2.35;0.60;;;3.80;99.90;;;;;;6309858;22;20011;-74
2021/12/02 09:53:37;;;;;;;6.57;1.67;;;3.90;99.90;;;;;;6309505;22;20026;-74
2021/12/02 09:58:29;;;;;;;4.65;1.05;;;4.10;99.90;;;;;;6309154;22;20072;-73
2021/12/02 10:01:05;;;;;;;6.15;1.17;;;4.40;99.90;;;;;;6308570;22;20407;-76
2021/12/02 10:03:34;;;;;;;11.77;1.90;;;4.60;99.90;;;;;;6309871;22;20030;-75
2021/12/02 10:06:14;;;;;;;10.23;1.40;;;4.30;99.90;;;;;;6309832;22;20016;-77
2021/12/02 10:09:05;;;;;;;9.63;2.45;;;4.00;99.90;;;;;;6309832;22;20064;-75
2021/12/02 10:11:59;;;;;;;7.25;1.17;;;3.90;99.90;;;;;;6309483;22;20018;-73
2021/12/02 10:14:34;;;;;;;9.05;1.13;;;3.70;99.90;;;;;;6309697;22;20023;-76
2021/12/02 10:23:15;;;;;;;7.25;1.02;;;3.50;99.90;;;;;;6309915;22;20023;-74
2021/12/02 10:26:03;;;;;;;6.20;1.13;;;3.40;99.90;;;;;;6309356;22;20102;-74
2021/12/02 10:28:41;;;;;;;3.55;1.02;;;3.40;99.90;;;;;;6309802;22;20022;-75
2021/12/02 10:31:07;;;;;;;2.95;0.85;;;3.40;99.90;;;;;;6281658;22;20104;-76
2021/12/02 10:33:35;;;;;;;4.72;1.20;;;3.30;99.90;;;;;;6308077;22;20015;-77
2021/12/02 10:36:03;;;;;;;4.03;0.77;;;3.30;99.90;;;;;;6309617;22;20027;-76
2021/12/02 10:38:38;;;;;;;4.95;1.20;;;3.30;99.90;;;;;;6305745;22;20023;-77
2021/12/02 10:41:08;;;;;;;5.18;0.98;;;3.40;99.90;;;;;;6309201;22;20042;-76
2021/12/02 10:43:34;;;;;;;6.32;0.93;;;3.30;99.90;;;;;;6309439;22;20027;-76
2021/12/02 10:46:16;;;;;;;1.73;0.82;;;3.30;99.90;;;;;;6309186;22;20082;-76
2021/12/02 10:48:49;;;;;;;3.97;1.23;;;3.30;99.90;;;;;;6308780;22;20419;-76
2021/12/02 10:51:44;;;;;;;5.70;1.05;;;3.30;99.90;;;;;;6309113;22;20064;-77
2021/12/02 10:54:14;;;;;;;4.45;0.90;;;3.40;99.90;;;;;;6309150;22;20023;-76
2021/12/02 10:56:43;;;;;;;1.75;0.70;;;3.40;99.90;;;;;;6309079;22;20015;-77
2021/12/02 10:59:28;;;;;;;3.38;1.23;;;3.40;99.90;;;;;;6308897;22;20026;-77
2021/12/02 11:02:00;;;;;;;2.45;1.00;;;3.50;99.90;;;;;;6309044;22;20019;-77
2021/12/02 11:04:34;;;;;;;4.80;0.82;;;3.50;99.90;;;;;;6309223;22;20057;-74
2021/12/02 11:07:01;;;;;;;4.73;1.00;;;3.60;99.90;;;;;;6309426;22;20098;-75
2021/12/02 11:09:32;;;;;;;5.70;0.82;;;3.60;99.90;;;;;;6309109;22;20018;-74
2021/12/02 11:12:08;;;;;;;4.18;1.13;;;3.60;99.90;;;;;;6308024;22;20080;-74
2021/12/02 11:14:39;;;;;;;7.45;1.52;;;3.70;99.90;;;;;;6307595;22;20160;-75
2021/12/02 11:17:16;;;;;;;6.00;1.30;;;3.80;99.90;;;;;;6281554;22;20141;-75
2021/12/02 11:19:47;;;;;;;9.00;1.60;;;4.00;99.90;;;;;;6308823;22;20057;-75
2021/12/02 11:22:18;;;;;;;2.65;0.98;;;4.10;99.90;;;;;;6308700;22;20019;-74
2021/12/02 11:24:45;;;;;;;4.15;1.45;;;4.20;99.90;;;;;;6309308;22;20023;-74
2021/12/02 11:27:19;;;;;;;4.43;1.10;;;4.20;99.90;;;;;;6308968;22;20062;-75
2021/12/02 11:29:55;;;;;;;9.82;1.80;;;4.30;99.90;;;;;;6309402;22;20280;-75
2021/12/02 11:32:39;;;;;;;5.10;1.17;;;4.50;99.90;;;;;;6309070;22;20266;-74
2021/12/02 11:35:27;;;;;;;2.90;0.93;;;4.50;99.90;;;;;;6309188;22;20026;-74
2021/12/02 11:38:14;;;;;;;6.30;1.40;;;4.60;99.90;;;;;;6308635;22;20454;-74
2021/12/02 11:40:46;;;;;;;3.63;1.10;;;4.80;99.90;;;;;;6309543;22;20419;-74
2021/12/02 11:43:14;;;;;;;4.18;1.10;;;4.90;99.90;;;;;;6311001;22;20369;-74
2021/12/02 11:45:46;;;;;;;4.82;1.27;;;4.80;99.90;;;;;;6310403;22;20031;-74
2021/12/02 11:48:16;;;;;;;5.20;0.93;;;4.90;99.90;;;;;;6310572;22;20423;-74
2021/12/02 11:50:44;;;;;;;4.07;0.80;;;4.80;99.90;;;;;;6311038;22;20011;-74
2021/12/02 11:53:10;;;;;;;7.10;0.88;;;4.90;99.90;;;;;;6310816;22;20015;-77
2021/12/02 11:55:41;;;;;;;3.42;1.00;;;4.90;99.90;;;;;;6310753;22;20015;-74
2021/12/02 11:58:08;;;;;;;4.75;1.17;;;4.90;99.90;;;;;;6310882;22;20085;-74
2021/12/02 12:00:34;;;;;;;4.80;0.93;;;4.80;99.90;;;;;;6283622;22;20053;-75
2021/12/02 12:03:12;;;;;;;5.55;0.90;;;4.90;99.90;;;;;;6283925;22;20074;-75
2021/12/02 12:05:54;;;;;;;5.47;1.48;;;4.90;99.90;;;;;;6310451;22;20019;-75
2021/12/02 12:08:35;;;;;;;4.25;1.35;;;4.90;99.90;;;;;;6310901;22;20011;-75
2021/12/02 12:11:29;;;;;;;4.70;0.82;;;4.90;99.90;;;;;;6311078;22;20089;-75
2021/12/02 12:14:02;;;;;;;4.25;1.08;;;4.90;99.90;;;;;;6295204;22;20015;-75
2021/12/02 12:16:29;;;;;;;5.38;0.77;;;4.90;99.90;;;;;;6310453;22;20011;-77
2021/12/02 12:19:12;;;;;;;2.13;1.08;;;5.00;99.90;;;;;;6310641;22;20094;-74
2021/12/02 12:21:40;;;;;;;3.45;1.02;;;5.00;99.90;;;;;;6310766;22;20019;-74
2021/12/02 12:24:07;;;;;;;5.03;1.17;;;5.00;99.90;;;;;;6310547;22;20090;-75
2021/12/02 12:26:37;;;;;;;4.45;0.82;;;5.00;99.90;;;;;;6310662;22;20319;-74
2021/12/02 12:29:09;;;;;;;3.40;0.88;;;5.00;99.90;;;;;;6310819;22;20021;-75
2021/12/02 12:34:31;;;;;;;4.20;1.00;;;5.10;99.90;;;;;;6283396;22;20369;-73
2021/12/02 12:37:00;;;;;;;6.00;1.35;;;5.10;99.90;;;;;;6309865;22;20324;-75
2021/12/02 12:39:33;;;;;;;4.30;1.00;;;5.10;99.90;;;;;;6310229;22;20027;-74
2021/12/02 12:42:15;;;;;;;3.95;0.52;;;5.20;99.90;;;;;;6310253;22;20055;-74
2021/12/02 12:44:52;;;;;;;5.40;1.52;;;5.20;99.90;;;;;;6310792;22;20088;-73
2021/12/02 12:47:39;;;;;;;2.50;0.80;;;5.30;99.90;;;;;;6310450;22;20094;-74
2021/12/02 12:50:36;;;;;;;5.18;0.70;;;5.40;99.90;;;;;;6282978;22;20077;-75
2021/12/02 12:53:05;;;;;;;3.40;1.20;;;5.30;99.90;;;;;;6279076;22;20011;-74
2021/12/02 12:55:38;;;;;;;1.85;0.80;;;5.40;99.90;;;;;;6310279;22;20094;-74
2021/12/02 12:58:12;;;;;;;5.85;1.00;;;5.40;99.90;;;;;;6309859;22;20019;-74
2021/12/02 13:00:46;;;;;;;4.40;0.90;;;5.50;99.90;;;;;;6310179;22;20093;-74
2021/12/02 13:03:21;;;;;;;6.10;0.93;;;5.50;99.90;;;;;;6309732;22;20495;-73
2021/12/02 13:05:54;;;;;;;2.03;0.95;;;5.50;99.90;;;;;;6310820;22;20026;-76
2021/12/02 13:08:26;;;;;;;6.50;1.60;;;5.60;99.90;;;;;;6309846;22;20054;-75
2021/12/02 13:10:57;;;;;;;9.20;1.80;;;5.60;99.90;;;;;;6309944;22;20019;-74
2021/12/02 13:13:34;;;;;;;1.95;0.80;;;5.70;99.90;;;;;;6309976;22;20026;-74
2021/12/02 13:16:35;;;;;;;4.57;1.58;;;5.70;99.90;;;;;;6310292;22;20015;-74
2021/12/02 13:19:14;;;;;;;3.65;1.00;;;5.80;99.90;;;;;;6309896;22;20030;-73
2021/12/02 13:21:42;;;;;;;6.97;0.90;;;5.80;99.90;;;;;;6309865;22;20022;-73
2021/12/02 13:24:18;;;;;;;6.60;1.48;;;6.00;99.90;;;;;;6309208;22;20015;-74
2021/12/02 13:26:44;;;;;;;3.78;1.45;;;6.00;99.90;;;;;;6309563;22;20289;-77
2021/12/02 13:29:21;;;;;;;4.00;0.98;;;6.20;99.90;;;;;;6309658;22;20111;-74
2021/12/02 13:31:56;;;;;;;5.97;0.98;;;6.20;99.90;;;;;;6283161;22;20026;-76
2021/12/02 13:34:24;;;;;;;2.15;0.77;;;6.30;99.90;;;;;;6309997;22;20051;-75
2021/12/02 13:36:56;;;;;;;2.53;0.70;;;6.30;99.90;;;;;;6310260;22;20312;-76